sensor_id;sensor_type;location;lat;lon;timestamp;temperature;humidity
33460;DHT22;19795;53.160;6.612;2022-09-12T03:39:30;11.80;99.90
33460;DHT22;19795;53.160;6.612;2022-09-12T03:46:56;11.70;99.90
33460;DHT22;19795;53.160;6.612;2022-09-12T03:49:22;11.70;99.90
33460;DHT22;19795;53.160;6.612;2022-09-12T03:51:47;11.60;99.90
33460;DHT22;19795;53.160;6.612;2022-09-12T03:54:13;11.60;99.90
33460;DHT22;19795;53.160;6.612;2022-09-12T03:56:38;11.60;99.90
33460;DHT22;19795;53.160;6.612;2022-09-12T03:59:06;11.70;99.90
33460;DHT22;19795;53.160;6.612;2022-09-12T04:01:32;11.80;99.90
33460;DHT22;19795;53.160;6.612;2022-09-12T04:03:58;11.80;99.90
33460;DHT22;19795;53.160;6.612;2022-09-12T04:06:23;11.90;99.90
33460;DHT22;19795;53.160;6.612;2022-09-12T04:08:51;11.80;99.90
33460;DHT22;19795;53.160;6.612;2022-09-12T04:11:18;11.90;99.90
33460;DHT22;19795;53.160;6.612;2022-09-12T04:13:44;11.80;99.90
33460;DHT22;19795;53.160;6.612;2022-09-12T04:16:11;11.80;99.90
33460;DHT22;19795;53.160;6.612;2022-09-12T04:18:37;11.80;99.90
33460;DHT22;19795;53.160;6.612;2022-09-12T04:21:09;11.80;99.90
33460;DHT22;19795;53.160;6.612;2022-09-12T04:23:35;11.70;99.90
33460;DHT22;19795;53.160;6.612;2022-09-12T04:26:03;11.80;99.90
33460;DHT22;19795;53.160;6.612;2022-09-12T04:28:31;11.70;99.90
33460;DHT22;19795;53.160;6.612;2022-09-12T04:31:04;11.70;99.90
33460;DHT22;19795;53.160;6.612;2022-09-12T04:33:31;11.70;99.90
33460;DHT22;19795;53.160;6.612;2022-09-12T04:36:03;11.60;99.90
33460;DHT22;19795;53.160;6.612;2022-09-12T04:38:29;11.60;99.90
33460;DHT22;19795;53.160;6.612;2022-09-12T04:40:55;11.60;99.90
33460;DHT22;19795;53.160;6.612;2022-09-12T04:43:21;11.50;99.90
33460;DHT22;19795;53.160;6.612;2022-09-12T04:45:47;11.60;99.90
33460;DHT22;19795;53.160;6.612;2022-09-12T04:48:12;11.60;99.90
33460;DHT22;19795;53.160;6.612;2022-09-12T04:50:38;11.70;99.90
33460;DHT22;19795;53.160;6.612;2022-09-12T04:53:03;11.70;99.90
33460;DHT22;19795;53.160;6.612;2022-09-12T04:55:29;11.80;99.90
33460;DHT22;19795;53.160;6.612;2022-09-12T04:57:55;11.90;99.90
33460;DHT22;19795;53.160;6.612;2022-09-12T05:00:20;12.00;99.90
33460;DHT22;19795;53.160;6.612;2022-09-12T05:02:46;12.10;99.90
33460;DHT22;19795;53.160;6.612;2022-09-12T05:05:12;12.30;99.90
33460;DHT22;19795;53.160;6.612;2022-09-12T05:07:37;12.40;99.90
33460;DHT22;19795;53.160;6.612;2022-09-12T05:10:03;12.40;99.90
33460;DHT22;19795;53.160;6.612;2022-09-12T05:12:30;12.50;99.90
33460;DHT22;19795;53.160;6.612;2022-09-12T05:14:56;12.60;99.90
33460;DHT22;19795;53.160;6.612;2022-09-12T05:17:21;12.70;99.90
33460;DHT22;19795;53.160;6.612;2022-09-12T05:19:47;12.60;99.90
33460;DHT22;19795;53.160;6.612;2022-09-12T05:22:13;12.80;99.90
33460;DHT22;19795;53.160;6.612;2022-09-12T05:24:39;12.90;99.90
33460;DHT22;19795;53.160;6.612;2022-09-12T05:27:08;12.90;99.90
33460;DHT22;19795;53.160;6.612;2022-09-12T05:29:34;13.00;99.90
33460;DHT22;19795;53.160;6.612;2022-09-12T05:32:00;13.10;99.90
33460;DHT22;19795;53.160;6.612;2022-09-12T05:34:26;13.20;99.90
33460;DHT22;19795;53.160;6.612;2022-09-12T05:36:52;13.10;99.90
33460;DHT22;19795;53.160;6.612;2022-09-12T05:39:18;13.20;99.90
33460;DHT22;19795;53.160;6.612;2022-09-12T05:41:44;13.20;99.90
33460;DHT22;19795;53.160;6.612;2022-09-12T05:44:11;13.20;99.90
33460;DHT22;19795;53.160;6.612;2022-09-12T05:46:40;13.30;99.90
33460;DHT22;19795;53.160;6.612;2022-09-12T05:49:11;13.30;99.90
33460;DHT22;19795;53.160;6.612;2022-09-12T05:51:40;13.40;99.90
33460;DHT22;19795;53.160;6.612;2022-09-12T05:54:08;13.40;99.90
33460;DHT22;19795;53.160;6.612;2022-09-12T05:56:41;13.50;99.90
33460;DHT22;19795;53.160;6.612;2022-09-12T05:59:13;13.50;99.90
33460;DHT22;19795;53.160;6.612;2022-09-12T06:01:39;13.40;99.90
33460;DHT22;19795;53.160;6.612;2022-09-12T06:04:05;13.50;99.90
33460;DHT22;19795;53.160;6.612;2022-09-12T06:06:35;13.50;99.90
33460;DHT22;19795;53.160;6.612;2022-09-12T06:09:02;13.60;99.90
33460;DHT22;19795;53.160;6.612;2022-09-12T06:11:31;13.60;99.90
33460;DHT22;19795;53.160;6.612;2022-09-12T06:13:58;13.60;99.90
33460;DHT22;19795;53.160;6.612;2022-09-12T06:16:32;13.60;99.90
33460;DHT22;19795;53.160;6.612;2022-09-12T06:19:00;13.70;99.90
33460;DHT22;19795;53.160;6.612;2022-09-12T06:21:26;13.80;99.90
33460;DHT22;19795;53.160;6.612;2022-09-12T06:23:56;13.80;99.90
33460;DHT22;19795;53.160;6.612;2022-09-12T06:26:23;13.90;99.90
33460;DHT22;19795;53.160;6.612;2022-09-12T06:28:51;14.00;99.90
33460;DHT22;19795;53.160;6.612;2022-09-12T06:31:20;14.20;99.90
33460;DHT22;19795;53.160;6.612;2022-09-12T06:33:48;14.20;99.90
33460;DHT22;19795;53.160;6.612;2022-09-12T06:36:26;14.30;99.90
33460;DHT22;19795;53.160;6.612;2022-09-12T06:39:04;14.40;99.90
33460;DHT22;19795;53.160;6.612;2022-09-12T06:41:31;14.40;99.90
33460;DHT22;19795;53.160;6.612;2022-09-12T06:43:57;14.50;99.90
33460;DHT22;19795;53.160;6.612;2022-09-12T06:46:23;14.50;99.90
33460;DHT22;19795;53.160;6.612;2022-09-12T06:48:49;14.50;99.90
33460;DHT22;19795;53.160;6.612;2022-09-12T06:51:17;14.60;99.90
33460;DHT22;19795;53.160;6.612;2022-09-12T06:53:45;14.50;99.90
33460;DHT22;19795;53.160;6.612;2022-09-12T06:56:13;14.50;99.90
33460;DHT22;19795;53.160;6.612;2022-09-12T06:58:40;14.50;99.90
33460;DHT22;19795;53.160;6.612;2022-09-12T07:01:11;14.60;99.90
33460;DHT22;19795;53.160;6.612;2022-09-12T07:03:38;14.70;99.90
33460;DHT22;19795;53.160;6.612;2022-09-12T07:06:12;14.60;99.90
33460;DHT22;19795;53.160;6.612;2022-09-12T07:08:38;14.70;99.90
33460;DHT22;19795;53.160;6.612;2022-09-12T07:11:10;14.70;99.90
33460;DHT22;19795;53.160;6.612;2022-09-12T07:13:38;14.80;99.90
33460;DHT22;19795;53.160;6.612;2022-09-12T07:16:04;14.90;99.90
33460;DHT22;19795;53.160;6.612;2022-09-12T07:18:30;14.90;99.90
33460;DHT22;19795;53.160;6.612;2022-09-12T07:20:59;15.10;99.90
33460;DHT22;19795;53.160;6.612;2022-09-12T07:23:25;15.30;99.90
33460;DHT22;19795;53.160;6.612;2022-09-12T07:25:54;15.40;99.90
33460;DHT22;19795;53.160;6.612;2022-09-12T07:28:24;15.50;99.90
33460;DHT22;19795;53.160;6.612;2022-09-12T07:30:50;15.70;99.90
33460;DHT22;19795;53.160;6.612;2022-09-12T07:33:27;15.80;99.90
33460;DHT22;19795;53.160;6.612;2022-09-12T07:35:53;15.90;99.90
33460;DHT22;19795;53.160;6.612;2022-09-12T07:38:20;16.00;99.90
33460;DHT22;19795;53.160;6.612;2022-09-12T07:40:46;16.20;99.90
33460;DHT22;19795;53.160;6.612;2022-09-12T07:43:12;16.40;99.90
33460;DHT22;19795;53.160;6.612;2022-09-12T07:45:37;16.40;99.90
33460;DHT22;19795;53.160;6.612;2022-09-12T07:48:06;16.60;99.90
33460;DHT22;19795;53.160;6.612;2022-09-12T07:50:32;16.70;99.90
33460;DHT22;19795;53.160;6.612;2022-09-12T07:52:58;16.80;99.90
33460;DHT22;19795;53.160;6.612;2022-09-12T07:55:23;16.80;99.90
33460;DHT22;19795;53.160;6.612;2022-09-12T07:57:50;16.90;99.90
33460;DHT22;19795;53.160;6.612;2022-09-12T08:00:17;16.90;99.90
33460;DHT22;19795;53.160;6.612;2022-09-12T08:02:43;16.90;99.90
33460;DHT22;19795;53.160;6.612;2022-09-12T08:05:09;17.00;99.90
33460;DHT22;19795;53.160;6.612;2022-09-12T08:07:35;17.00;99.90
33460;DHT22;19795;53.160;6.612;2022-09-12T08:10:00;17.20;99.90
33460;DHT22;19795;53.160;6.612;2022-09-12T08:12:27;17.40;99.90
33460;DHT22;19795;53.160;6.612;2022-09-12T08:14:53;17.50;99.90
33460;DHT22;19795;53.160;6.612;2022-09-12T08:17:19;17.70;99.90
33460;DHT22;19795;53.160;6.612;2022-09-12T08:19:44;18.00;99.90
33460;DHT22;19795;53.160;6.612;2022-09-12T08:22:11;18.20;99.90
33460;DHT22;19795;53.160;6.612;2022-09-12T08:24:37;18.10;99.90
33460;DHT22;19795;53.160;6.612;2022-09-12T08:27:04;18.10;99.90
33460;DHT22;19795;53.160;6.612;2022-09-12T08:29:31;18.20;99.90
33460;DHT22;19795;53.160;6.612;2022-09-12T08:31:56;18.10;99.90
33460;DHT22;19795;53.160;6.612;2022-09-12T08:34:22;18.10;99.90
33460;DHT22;19795;53.160;6.612;2022-09-12T08:36:50;18.30;99.90
33460;DHT22;19795;53.160;6.612;2022-09-12T08:39:19;18.30;99.90
33460;DHT22;19795;53.160;6.612;2022-09-12T08:41:47;18.60;99.90
33460;DHT22;19795;53.160;6.612;2022-09-12T08:52:09;19.10;99.90
33460;DHT22;19795;53.160;6.612;2022-09-12T08:54:37;19.30;99.90
33460;DHT22;19795;53.160;6.612;2022-09-12T08:57:04;19.30;99.90
33460;DHT22;19795;53.160;6.612;2022-09-12T08:59:36;19.50;99.90
33460;DHT22;19795;53.160;6.612;2022-09-12T09:02:04;19.70;99.90
33460;DHT22;19795;53.160;6.612;2022-09-12T09:04:50;19.90;99.90
33460;DHT22;19795;53.160;6.612;2022-09-12T09:07:54;20.10;99.90
33460;DHT22;19795;53.160;6.612;2022-09-12T09:13:48;20.00;99.90
33460;DHT22;19795;53.160;6.612;2022-09-12T09:16:29;20.10;99.90
33460;DHT22;19795;53.160;6.612;2022-09-12T09:18:58;20.30;99.90
33460;DHT22;19795;53.160;6.612;2022-09-12T09:21:31;20.50;99.90
33460;DHT22;19795;53.160;6.612;2022-09-12T09:24:04;20.60;99.90
33460;DHT22;19795;53.160;6.612;2022-09-12T09:29:22;20.90;99.90
33460;DHT22;19795;53.160;6.612;2022-09-12T09:31:55;21.20;99.90
33460;DHT22;19795;53.160;6.612;2022-09-12T09:34:25;21.30;99.90
33460;DHT22;19795;53.160;6.612;2022-09-12T09:36:51;21.20;99.90
33460;DHT22;19795;53.160;6.612;2022-09-12T09:39:42;21.30;99.90
33460;DHT22;19795;53.160;6.612;2022-09-12T09:45:15;20.80;99.90
33460;DHT22;19795;53.160;6.612;2022-09-12T09:50:27;21.30;99.90
33460;DHT22;19795;53.160;6.612;2022-09-12T09:52:53;21.20;99.90
33460;DHT22;19795;53.160;6.612;2022-09-12T09:55:24;21.40;99.90
33460;DHT22;19795;53.160;6.612;2022-09-12T09:57:52;22.00;99.90
33460;DHT22;19795;53.160;6.612;2022-09-12T10:00:37;22.50;99.90
33460;DHT22;19795;53.160;6.612;2022-09-12T10:05:56;22.40;99.90
33460;DHT22;19795;53.160;6.612;2022-09-12T10:08:31;22.90;99.90
33460;DHT22;19795;53.160;6.612;2022-09-12T10:11:21;23.20;99.90
33460;DHT22;19795;53.160;6.612;2022-09-12T10:13:51;23.40;99.90
33460;DHT22;19795;53.160;6.612;2022-09-12T10:16:32;23.60;99.90
33460;DHT22;19795;53.160;6.612;2022-09-12T10:19:02;23.80;99.90
33460;DHT22;19795;53.160;6.612;2022-09-12T10:21:35;24.10;99.90
33460;DHT22;19795;53.160;6.612;2022-09-12T10:29:37;24.40;99.90
33460;DHT22;19795;53.160;6.612;2022-09-12T10:32:08;24.20;99.90
33460;DHT22;19795;53.160;6.612;2022-09-12T10:34:44;24.10;99.90
33460;DHT22;19795;53.160;6.612;2022-09-12T10:37:28;23.90;99.90
33460;DHT22;19795;53.160;6.612;2022-09-12T10:39:57;23.60;99.90
33460;DHT22;19795;53.160;6.612;2022-09-12T10:42:56;23.90;99.90
33460;DHT22;19795;53.160;6.612;2022-09-12T10:45:34;24.20;99.90
33460;DHT22;19795;53.160;6.612;2022-09-12T10:48:18;24.20;99.90
33460;DHT22;19795;53.160;6.612;2022-09-12T10:50:47;24.10;99.90
33460;DHT22;19795;53.160;6.612;2022-09-12T10:53:22;24.50;99.90
33460;DHT22;19795;53.160;6.612;2022-09-12T10:56:08;24.80;99.90
33460;DHT22;19795;53.160;6.612;2022-09-12T11:01:36;24.50;99.90
33460;DHT22;19795;53.160;6.612;2022-09-12T11:06:42;24.70;99.90
33460;DHT22;19795;53.160;6.612;2022-09-12T11:09:20;24.60;99.90
33460;DHT22;19795;53.160;6.612;2022-09-12T11:12:26;24.80;99.90
33460;DHT22;19795;53.160;6.612;2022-09-12T11:15:06;25.00;99.90
33460;DHT22;19795;53.160;6.612;2022-09-12T11:17:55;25.20;99.90
33460;DHT22;19795;53.160;6.612;2022-09-12T11:38:07;25.40;99.90
33460;DHT22;19795;53.160;6.612;2022-09-12T11:43:22;25.40;99.90
33460;DHT22;19795;53.160;6.612;2022-09-12T11:45:50;25.40;99.90
33460;DHT22;19795;53.160;6.612;2022-09-12T11:48:47;26.00;99.90
33460;DHT22;19795;53.160;6.612;2022-09-12T11:51:38;26.00;99.90
33460;DHT22;19795;53.160;6.612;2022-09-12T11:54:11;26.50;99.90
33460;DHT22;19795;53.160;6.612;2022-09-12T11:56:44;26.60;99.90
33460;DHT22;19795;53.160;6.612;2022-09-12T11:59:41;26.60;99.90
33460;DHT22;19795;53.160;6.612;2022-09-12T12:02:13;26.50;99.90
33460;DHT22;19795;53.160;6.612;2022-09-12T12:04:48;26.40;99.90
33460;DHT22;19795;53.160;6.612;2022-09-12T12:07:18;26.20;99.90
33460;DHT22;19795;53.160;6.612;2022-09-12T12:09:48;25.60;99.90
33460;DHT22;19795;53.160;6.612;2022-09-12T12:12:20;25.60;99.90
33460;DHT22;19795;53.160;6.612;2022-09-12T12:14:48;26.10;99.90
33460;DHT22;19795;53.160;6.612;2022-09-12T12:17:23;26.40;99.90
33460;DHT22;19795;53.160;6.612;2022-09-12T12:20:15;26.30;99.90
33460;DHT22;19795;53.160;6.612;2022-09-12T12:22:52;26.10;99.90
33460;DHT22;19795;53.160;6.612;2022-09-12T12:27:47;25.60;99.90
33460;DHT22;19795;53.160;6.612;2022-09-12T12:38:33;25.40;99.90
33460;DHT22;19795;53.160;6.612;2022-09-12T12:43:51;25.20;99.90
33460;DHT22;19795;53.160;6.612;2022-09-12T12:46:18;25.50;99.90
33460;DHT22;19795;53.160;6.612;2022-09-12T12:51:31;26.30;99.90
33460;DHT22;19795;53.160;6.612;2022-09-12T12:53:59;26.30;99.80
33460;DHT22;19795;53.160;6.612;2022-09-12T12:56:36;26.30;99.90
33460;DHT22;19795;53.160;6.612;2022-09-12T12:59:18;26.40;99.90
33460;DHT22;19795;53.160;6.612;2022-09-12T13:01:49;26.50;99.90
33460;DHT22;19795;53.160;6.612;2022-09-12T13:04:20;26.50;99.90
33460;DHT22;19795;53.160;6.612;2022-09-12T13:07:03;26.00;99.90
33460;DHT22;19795;53.160;6.612;2022-09-12T13:09:42;25.40;99.90
33460;DHT22;19795;53.160;6.612;2022-09-12T13:12:17;25.30;99.90
33460;DHT22;19795;53.160;6.612;2022-09-12T13:14:55;25.20;99.90
33460;DHT22;19795;53.160;6.612;2022-09-12T13:17:33;25.40;99.90
33460;DHT22;19795;53.160;6.612;2022-09-12T13:22:43;25.80;99.90
33460;DHT22;19795;53.160;6.612;2022-09-12T13:25:33;25.90;99.90
33460;DHT22;19795;53.160;6.612;2022-09-12T13:30:34;25.40;99.70
33460;DHT22;19795;53.160;6.612;2022-09-12T13:44:08;24.90;99.90
33460;DHT22;19795;53.160;6.612;2022-09-12T13:46:35;24.40;99.90
33460;DHT22;19795;53.160;6.612;2022-09-12T13:49:10;24.60;99.90
33460;DHT22;19795;53.160;6.612;2022-09-12T13:51:40;24.70;99.90
33460;DHT22;19795;53.160;6.612;2022-09-12T13:54:15;25.10;99.90
33460;DHT22;19795;53.160;6.612;2022-09-12T13:56:50;25.20;99.90
33460;DHT22;19795;53.160;6.612;2022-09-12T13:59:16;25.20;99.90
33460;DHT22;19795;53.160;6.612;2022-09-12T14:01:46;25.10;99.90
33460;DHT22;19795;53.160;6.612;2022-09-12T14:07:08;25.10;99.90
33460;DHT22;19795;53.160;6.612;2022-09-12T14:09:41;25.20;99.90
33460;DHT22;19795;53.160;6.612;2022-09-12T14:12:32;25.10;99.90
33460;DHT22;19795;53.160;6.612;2022-09-12T14:14:59;25.00;99.90
33460;DHT22;19795;53.160;6.612;2022-09-12T14:17:35;24.70;99.90
33460;DHT22;19795;53.160;6.612;2022-09-12T14:20:11;24.70;99.90
33460;DHT22;19795;53.160;6.612;2022-09-12T14:22:38;24.90;99.90
33460;DHT22;19795;53.160;6.612;2022-09-12T14:25:05;25.20;99.90
33460;DHT22;19795;53.160;6.612;2022-09-12T14:27:41;24.90;99.90
33460;DHT22;19795;53.160;6.612;2022-09-12T14:33:05;24.60;99.90
33460;DHT22;19795;53.160;6.612;2022-09-12T14:35:43;24.40;99.90
33460;DHT22;19795;53.160;6.612;2022-09-12T14:41:00;24.50;99.90
33460;DHT22;19795;53.160;6.612;2022-09-12T14:43:32;24.40;99.90
33460;DHT22;19795;53.160;6.612;2022-09-12T14:46:13;24.60;99.90
33460;DHT22;19795;53.160;6.612;2022-09-12T14:48:46;24.80;99.90
33460;DHT22;19795;53.160;6.612;2022-09-12T14:51:22;24.70;99.90
33460;DHT22;19795;53.160;6.612;2022-09-12T14:53:49;24.60;99.90
33460;DHT22;19795;53.160;6.612;2022-09-12T14:56:16;24.50;99.90
33460;DHT22;19795;53.160;6.612;2022-09-12T14:58:42;24.40;99.90
33460;DHT22;19795;53.160;6.612;2022-09-12T15:03:49;24.60;99.90
33460;DHT22;19795;53.160;6.612;2022-09-12T15:08:52;24.30;99.90
33460;DHT22;19795;53.160;6.612;2022-09-12T15:11:17;24.30;99.90
33460;DHT22;19795;53.160;6.612;2022-09-12T15:13:43;24.30;99.90
33460;DHT22;19795;53.160;6.612;2022-09-12T15:16:10;24.40;99.90
33460;DHT22;19795;53.160;6.612;2022-09-12T15:18:36;24.40;99.90
33460;DHT22;19795;53.160;6.612;2022-09-12T15:21:04;24.50;99.90
33460;DHT22;19795;53.160;6.612;2022-09-12T15:23:48;24.40;99.90
33460;DHT22;19795;53.160;6.612;2022-09-12T15:26:20;24.30;99.90
33460;DHT22;19795;53.160;6.612;2022-09-12T15:28:46;24.20;99.90
33460;DHT22;19795;53.160;6.612;2022-09-12T15:31:25;24.10;99.90
33460;DHT22;19795;53.160;6.612;2022-09-12T15:33:51;23.90;99.90
33460;DHT22;19795;53.160;6.612;2022-09-12T15:36:19;23.80;99.90
33460;DHT22;19795;53.160;6.612;2022-09-12T15:38:46;23.70;99.90
33460;DHT22;19795;53.160;6.612;2022-09-12T15:41:31;23.70;99.90
33460;DHT22;19795;53.160;6.612;2022-09-12T15:43:58;23.80;99.90
33460;DHT22;19795;53.160;6.612;2022-09-12T15:46:23;23.70;99.90
33460;DHT22;19795;53.160;6.612;2022-09-12T15:48:49;23.80;99.90
33460;DHT22;19795;53.160;6.612;2022-09-12T15:51:16;23.90;99.90
33460;DHT22;19795;53.160;6.612;2022-09-12T15:53:44;23.80;99.90
33460;DHT22;19795;53.160;6.612;2022-09-12T15:56:10;23.70;99.90
33460;DHT22;19795;53.160;6.612;2022-09-12T15:58:39;23.60;99.90
33460;DHT22;19795;53.160;6.612;2022-09-12T16:01:12;23.60;99.90
33460;DHT22;19795;53.160;6.612;2022-09-12T16:03:38;23.50;99.90
33460;DHT22;19795;53.160;6.612;2022-09-12T16:06:04;23.20;99.90
33460;DHT22;19795;53.160;6.612;2022-09-12T16:08:32;23.20;99.90
33460;DHT22;19795;53.160;6.612;2022-09-12T16:11:18;23.20;99.90
33460;DHT22;19795;53.160;6.612;2022-09-12T16:13:44;23.20;99.90
33460;DHT22;19795;53.160;6.612;2022-09-12T16:16:10;23.00;99.90
33460;DHT22;19795;53.160;6.612;2022-09-12T16:18:38;22.90;99.90
33460;DHT22;19795;53.160;6.612;2022-09-12T16:21:04;22.80;99.90
33460;DHT22;19795;53.160;6.612;2022-09-12T16:23:30;22.60;99.90
33460;DHT22;19795;53.160;6.612;2022-09-12T16:26:00;22.50;99.90
33460;DHT22;19795;53.160;6.612;2022-09-12T16:28:32;22.30;99.90
33460;DHT22;19795;53.160;6.612;2022-09-12T16:31:02;22.20;99.90
33460;DHT22;19795;53.160;6.612;2022-09-12T16:33:29;22.00;99.90
33460;DHT22;19795;53.160;6.612;2022-09-12T16:36:04;21.90;99.90
33460;DHT22;19795;53.160;6.612;2022-09-12T16:38:30;21.80;99.90
33460;DHT22;19795;53.160;6.612;2022-09-12T16:41:00;21.70;99.90
33460;DHT22;19795;53.160;6.612;2022-09-12T16:43:26;21.70;99.90
33460;DHT22;19795;53.160;6.612;2022-09-12T16:46:00;21.60;99.90
33460;DHT22;19795;53.160;6.612;2022-09-12T16:48:27;21.50;99.90
33460;DHT22;19795;53.160;6.612;2022-09-12T16:50:57;21.50;99.90
33460;DHT22;19795;53.160;6.612;2022-09-12T16:53:25;21.50;99.90
33460;DHT22;19795;53.160;6.612;2022-09-12T16:55:50;21.40;99.90
33460;DHT22;19795;53.160;6.612;2022-09-12T16:58:19;21.40;99.90
33460;DHT22;19795;53.160;6.612;2022-09-12T17:00:45;21.30;99.90
33460;DHT22;19795;53.160;6.612;2022-09-12T17:03:11;21.30;99.90
33460;DHT22;19795;53.160;6.612;2022-09-12T17:05:37;21.30;99.90
33460;DHT22;19795;53.160;6.612;2022-09-12T17:08:02;21.30;99.90
33460;DHT22;19795;53.160;6.612;2022-09-12T17:10:28;21.30;99.90
33460;DHT22;19795;53.160;6.612;2022-09-12T17:12:55;21.20;99.90
33460;DHT22;19795;53.160;6.612;2022-09-12T17:15:22;21.10;99.90
33460;DHT22;19795;53.160;6.612;2022-09-12T17:17:48;21.00;99.90
33460;DHT22;19795;53.160;6.612;2022-09-12T17:20:13;20.90;99.90
33460;DHT22;19795;53.160;6.612;2022-09-12T17:22:39;20.80;99.90
33460;DHT22;19795;53.160;6.612;2022-09-12T17:25:05;20.70;99.90
33460;DHT22;19795;53.160;6.612;2022-09-12T17:27:30;20.60;99.90
33460;DHT22;19795;53.160;6.612;2022-09-12T17:29:56;20.40;99.90
33460;DHT22;19795;53.160;6.612;2022-09-12T17:32:22;20.20;99.90
33460;DHT22;19795;53.160;6.612;2022-09-12T17:34:47;20.00;99.90
33460;DHT22;19795;53.160;6.612;2022-09-12T17:37:13;19.80;99.90
33460;DHT22;19795;53.160;6.612;2022-09-12T17:39:39;19.70;99.90
33460;DHT22;19795;53.160;6.612;2022-09-12T17:42:05;19.50;99.90
33460;DHT22;19795;53.160;6.612;2022-09-12T17:44:32;19.40;99.90
33460;DHT22;19795;53.160;6.612;2022-09-12T17:47:00;19.30;99.90
33460;DHT22;19795;53.160;6.612;2022-09-12T17:49:26;19.10;99.90
33460;DHT22;19795;53.160;6.612;2022-09-12T17:51:52;18.90;99.90
33460;DHT22;19795;53.160;6.612;2022-09-12T17:54:20;18.80;99.90
33460;DHT22;19795;53.160;6.612;2022-09-12T17:56:47;18.70;99.90
33460;DHT22;19795;53.160;6.612;2022-09-12T17:59:18;18.60;99.90
33460;DHT22;19795;53.160;6.612;2022-09-12T18:01:45;18.50;99.90
33460;DHT22;19795;53.160;6.612;2022-09-12T18:04:29;18.30;99.90
33460;DHT22;19795;53.160;6.612;2022-09-12T18:06:55;18.20;99.90
33460;DHT22;19795;53.160;6.612;2022-09-12T18:09:23;18.20;99.90
33460;DHT22;19795;53.160;6.612;2022-09-12T18:11:51;18.20;99.90
33460;DHT22;19795;53.160;6.612;2022-09-12T18:14:17;18.20;99.90
33460;DHT22;19795;53.160;6.612;2022-09-12T18:16:44;18.20;99.90
33460;DHT22;19795;53.160;6.612;2022-09-12T18:19:10;18.20;99.90
33460;DHT22;19795;53.160;6.612;2022-09-12T18:21:36;18.20;99.90
33460;DHT22;19795;53.160;6.612;2022-09-12T18:24:02;18.20;99.90
33460;DHT22;19795;53.160;6.612;2022-09-12T18:26:29;18.30;99.90
33460;DHT22;19795;53.160;6.612;2022-09-12T18:28:56;18.50;99.90
33460;DHT22;19795;53.160;6.612;2022-09-12T18:31:24;18.50;99.90
33460;DHT22;19795;53.160;6.612;2022-09-12T18:33:50;18.50;99.90
33460;DHT22;19795;53.160;6.612;2022-09-12T18:36:17;18.30;99.90
33460;DHT22;19795;53.160;6.612;2022-09-12T18:38:43;18.20;99.90
33460;DHT22;19795;53.160;6.612;2022-09-12T18:41:14;18.10;99.90
33460;DHT22;19795;53.160;6.612;2022-09-12T18:43:40;17.90;99.90
33460;DHT22;19795;53.160;6.612;2022-09-12T18:46:11;17.80;99.90
33460;DHT22;19795;53.160;6.612;2022-09-12T18:48:38;17.70;99.90
33460;DHT22;19795;53.160;6.612;2022-09-12T18:51:20;17.70;99.90
33460;DHT22;19795;53.160;6.612;2022-09-12T18:53:51;17.80;99.90
33460;DHT22;19795;53.160;6.612;2022-09-12T18:56:17;17.80;99.90
33460;DHT22;19795;53.160;6.612;2022-09-12T18:58:43;17.80;99.90
33460;DHT22;19795;53.160;6.612;2022-09-12T19:01:35;17.70;99.90
33460;DHT22;19795;53.160;6.612;2022-09-12T19:03:59;17.70;99.90
33460;DHT22;19795;53.160;6.612;2022-09-12T19:06:30;17.80;99.90
33460;DHT22;19795;53.160;6.612;2022-09-12T19:08:56;17.90;99.90
33460;DHT22;19795;53.160;6.612;2022-09-12T19:11:24;18.00;99.90
33460;DHT22;19795;53.160;6.612;2022-09-12T19:13:51;18.00;99.90
33460;DHT22;19795;53.160;6.612;2022-09-12T19:16:20;18.00;99.90
